Time;durP1;ratioP1;P1;durP2;ratioP2;P2;SDS_P1;SDS_P2;PMS_P1;PMS_P2;Temp;Humidity;BMP_temperature;BMP_pressure;BME280_temperature;BME280_humidity;BME280_pressure;Samples;Min_cycle;Max_cycle;Signal;HPM_P1;HPM_P2
2022/10/10 00:00:15;;;;;;;;;1.50;1.50;;;;;10.95;62.15;99851.06;5098492;28;8842;-60
2022/10/10 00:02:43;;;;;;;;;1.00;1.00;;;;;11.01;61.81;99850.53;5098093;28;8814;-60
2022/10/10 00:05:11;;;;;;;;;1.50;1.50;;;;;11.14;62.18;99847.72;5098420;28;8866;-60
2022/10/10 00:07:38;;;;;;;;;2.00;2.00;;;;;11.21;62.12;99833.75;5097873;28;8822;-60
2022/10/10 00:10:06;;;;;;;;;1.00;1.00;;;;;11.29;61.51;99836.63;5098543;28;8841;-61
2022/10/10 00:12:34;;;;;;;;;0.00;0.00;;;;;11.37;61.74;99833.31;5098055;28;8903;-59
2022/10/10 00:15:01;;;;;;;;;1.00;1.00;;;;;11.43;61.48;99827.44;5098039;28;8838;-61
2022/10/10 00:17:29;;;;;;;;;3.00;2.50;;;;;11.49;61.78;99826.94;5098318;28;8818;-58
2022/10/10 00:19:57;;;;;;;;;0.33;0.33;;;;;11.58;61.63;99832.38;5098016;28;8826;-61
2022/10/10 00:22:25;;;;;;;;;1.00;0.25;;;;;11.64;61.84;99829.19;5098201;28;8818;-59
2022/10/10 00:24:52;;;;;;;;;0.00;0.00;;;;;11.68;61.53;99829.75;5098109;28;8826;-60
2022/10/10 00:27:20;;;;;;;;;3.00;3.00;;;;;11.68;61.43;99835.91;5097640;28;8822;-59
2022/10/10 00:29:48;;;;;;;;;1.00;1.00;;;;;11.70;61.96;99828.66;5097197;28;8807;-59
2022/10/10 00:32:15;;;;;;;;;1.50;1.00;;;;;11.74;61.83;99827.41;5097664;28;8822;-60
2022/10/10 00:34:43;;;;;;;;;3.00;3.00;;;;;11.76;61.66;99836.09;5098064;28;8919;-59
2022/10/10 00:37:11;;;;;;;;;1.00;1.00;;;;;11.78;61.52;99834.19;5098048;28;8883;-60
2022/10/10 00:39:38;;;;;;;;;1.00;1.00;;;;;11.74;61.96;99831.91;5097488;28;8931;-59
2022/10/10 00:42:06;;;;;;;;;1.00;1.00;;;;;11.71;61.50;99835.69;5097651;28;8814;-60
2022/10/10 00:44:35;;;;;;;;;3.00;3.00;;;;;11.72;61.73;99831.16;5097408;28;8923;-59
2022/10/10 00:47:03;;;;;;;;;1.00;1.00;;;;;11.70;61.77;99827.81;5097544;28;8906;-59
2022/10/10 00:49:31;;;;;;;;;1.00;1.00;;;;;11.67;61.89;99825.41;5097554;28;8842;-60
2022/10/10 00:51:59;;;;;;;;;1.00;1.00;;;;;11.60;62.32;99837.56;5097317;28;8918;-59
2022/10/10 00:54:27;;;;;;;;;0.75;0.50;;;;;11.48;62.73;99836.75;5097414;28;8910;-59
2022/10/10 00:56:54;;;;;;;;;2.00;2.00;;;;;11.37;62.79;99831.47;5096874;28;8822;-60
2022/10/10 00:59:22;;;;;;;;;1.50;1.50;;;;;11.21;63.21;99831.09;5097251;28;8814;-59
2022/10/10 01:01:50;;;;;;;;;3.75;2.00;;;;;11.02;63.21;99833.63;5096677;28;8963;-59
2022/10/10 01:04:17;;;;;;;;;2.00;2.00;;;;;10.86;63.97;99829.66;5097120;28;8838;-59
2022/10/10 01:06:45;;;;;;;;;1.00;1.00;;;;;10.69;64.46;99833.72;5097372;28;8838;-60
2022/10/10 01:09:13;;;;;;;;;3.00;3.00;;;;;10.53;64.65;99827.94;5097367;28;8927;-59
2022/10/10 01:11:41;;;;;;;;;0.50;0.50;;;;;10.42;64.55;99830.66;5097294;28;8818;-59
2022/10/10 01:14:08;;;;;;;;;3.00;3.00;;;;;10.31;64.80;99835.97;5097219;28;8861;-59
2022/10/10 01:16:36;;;;;;;;;5.00;4.00;;;;;10.19;65.38;99831.66;5097280;28;8842;-61
2022/10/10 01:19:04;;;;;;;;;1.00;1.00;;;;;10.06;65.28;99836.25;5097198;28;8883;-60
2022/10/10 01:21:31;;;;;;;;;3.00;3.00;;;;;9.93;65.83;99832.81;5096868;28;8830;-60
2022/10/10 01:23:59;;;;;;;;;2.50;1.00;;;;;9.83;65.96;99828.34;5097027;28;8842;-60
2022/10/10 01:26:27;;;;;;;;;0.50;0.00;;;;;9.75;66.05;99820.97;5096902;28;8810;-59
2022/10/10 01:28:55;;;;;;;;;1.00;1.00;;;;;9.69;66.10;99826.75;5096318;28;8883;-60
2022/10/10 01:31:23;;;;;;;;;3.75;3.75;;;;;9.65;66.07;99835.94;5096405;28;8810;-60
2022/10/10 01:33:50;;;;;;;;;1.00;1.00;;;;;9.58;66.17;99825.91;5096807;28;8822;-59
2022/10/10 01:36:18;;;;;;;;;3.00;3.00;;;;;9.50;66.74;99834.47;5096578;28;8946;-60
2022/10/10 01:38:49;;;;;;;;;3.00;2.50;;;;;9.43;66.87;99833.22;5096527;28;8830;-59
2022/10/10 01:41:17;;;;;;;;;1.00;1.00;;;;;9.35;66.74;99835.63;5095935;28;8826;-60
2022/10/10 01:43:44;;;;;;;;;1.00;1.00;;;;;9.27;66.20;99831.88;5095539;28;8822;-59
2022/10/10 01:46:12;;;;;;;;;1.50;1.00;;;;;9.20;67.11;99828.81;5095367;28;8834;-59
2022/10/10 01:48:40;;;;;;;;;1.00;1.00;;;;;9.14;66.78;99821.34;5095577;28;8955;-60
2022/10/10 01:51:08;;;;;;;;;0.50;0.50;;;;;9.11;66.68;99816.25;5095965;28;8906;-60
2022/10/10 01:53:35;;;;;;;;;3.00;3.00;;;;;9.07;67.18;99814.81;5096001;28;8838;-59
2022/10/10 01:56:03;;;;;;;;;3.00;3.00;;;;;9.03;67.04;99818.63;5095943;28;8871;-61
2022/10/10 01:58:31;;;;;;;;;2.50;2.50;;;;;9.02;66.89;99819.59;5095609;28;8849;-59
2022/10/10 02:00:59;;;;;;;;;1.00;1.00;;;;;8.99;66.67;99809.22;5096275;28;8912;-59
2022/10/10 02:03:26;;;;;;;;;0.75;0.75;;;;;8.97;67.16;99800.50;5096394;28;8818;-61
2022/10/10 02:05:54;;;;;;;;;0.75;0.75;;;;;8.96;66.92;99798.81;5096411;28;8838;-58
2022/10/10 02:08:21;;;;;;;;;3.00;1.50;;;;;8.97;66.92;99795.19;5095861;28;8841;-58
2022/10/10 02:10:49;;;;;;;;;1.00;1.00;;;;;9.04;67.05;99801.72;5096417;28;9554;-59
2022/10/10 02:13:17;;;;;;;;;3.00;3.00;;;;;9.06;66.90;99791.88;5096491;28;8838;-59
2022/10/10 02:15:45;;;;;;;;;0.50;0.50;;;;;9.07;66.96;99801.53;5096425;28;8887;-59
2022/10/10 02:18:12;;;;;;;;;1.50;1.50;;;;;9.09;67.04;99796.94;5096229;28;8906;-59
2022/10/10 02:20:40;;;;;;;;;2.50;1.00;;;;;9.14;66.57;99791.25;5096156;28;8838;-59
2022/10/10 02:23:07;;;;;;;;;3.00;1.00;;;;;9.29;66.60;99796.28;5096328;28;8850;-60
2022/10/10 02:25:35;;;;;;;;;1.00;1.00;;;;;9.46;66.09;99785.19;5095965;28;8906;-60
2022/10/10 02:28:03;;;;;;;;;1.00;1.00;;;;;9.64;65.83;99782.91;5095926;28;8826;-59
2022/10/10 02:30:30;;;;;;;;;1.50;1.50;;;;;9.84;65.50;99784.81;5095611;28;8927;-59
2022/10/10 02:32:58;;;;;;;;;3.00;3.00;;;;;10.01;65.09;99790.50;5095779;28;8914;-59
2022/10/10 02:35:26;;;;;;;;;3.00;3.00;;;;;10.18;64.48;99779.38;5095347;28;8923;-60
2022/10/10 02:37:54;;;;;;;;;3.50;2.50;;;;;10.35;64.48;99780.69;5095349;28;8899;-59
2022/10/10 02:40:21;;;;;;;;;3.50;3.00;;;;;10.49;64.16;99778.59;5095770;28;8838;-59
2022/10/10 02:42:49;;;;;;;;;3.50;3.50;;;;;10.60;64.17;99769.69;5095942;28;8858;-59
2022/10/10 02:45:17;;;;;;;;;4.00;3.00;;;;;10.72;64.29;99769.56;5094908;28;8830;-59
2022/10/10 02:47:45;;;;;;;;;1.25;0.75;;;;;10.81;64.63;99760.81;5094705;28;8833;-60
2022/10/10 02:50:13;;;;;;;;;2.00;2.00;;;;;10.92;63.96;99768.72;5095073;28;8826;-59
2022/10/10 02:52:40;;;;;;;;;4.00;4.00;;;;;10.98;63.89;99765.56;5094404;28;8927;-61
2022/10/10 02:55:08;;;;;;;;;2.00;2.00;;;;;11.02;63.72;99759.00;5094914;28;8826;-59
2022/10/10 02:57:36;;;;;;;;;3.00;3.00;;;;;11.07;63.94;99759.44;5094980;28;8814;-59
2022/10/10 03:00:03;;;;;;;;;1.00;1.00;;;;;11.12;64.00;99761.72;5095387;28;8891;-60
2022/10/10 03:02:31;;;;;;;;;3.25;3.00;;;;;11.12;63.74;99759.06;5095332;28;8826;-59
2022/10/10 03:04:59;;;;;;;;;3.00;3.00;;;;;11.13;63.76;99756.25;5094742;28;8854;-60
2022/10/10 03:07:27;;;;;;;;;1.00;1.00;;;;;11.12;63.74;99756.38;5094703;28;8846;-60
2022/10/10 03:09:54;;;;;;;;;0.00;0.00;;;;;11.03;64.16;99757.16;5094982;28;8830;-61
2022/10/10 03:12:22;;;;;;;;;2.50;1.00;;;;;10.92;64.43;99755.41;5094766;28;8826;-60
2022/10/10 03:14:49;;;;;;;;;3.75;3.25;;;;;10.80;64.66;99753.78;5094891;28;8883;-59
2022/10/10 03:17:17;;;;;;;;;3.75;3.75;;;;;10.65;65.26;99740.88;5095705;28;8830;-60
2022/10/10 03:19:45;;;;;;;;;4.00;4.00;;;;;10.55;65.63;99745.28;5095079;28;8838;-60
2022/10/10 03:22:12;;;;;;;;;3.00;3.00;;;;;10.52;65.52;99757.03;5094903;28;8834;-60
2022/10/10 03:24:40;;;;;;;;;3.00;3.00;;;;;10.43;65.81;99755.13;5095920;28;9561;-59
2022/10/10 03:27:08;;;;;;;;;1.50;0.75;;;;;10.33;65.72;99753.34;5095471;28;8838;-60
2022/10/10 03:29:36;;;;;;;;;1.25;0.75;;;;;10.24;65.77;99751.44;5095494;28;8896;-60
2022/10/10 03:32:03;;;;;;;;;3.00;3.00;;;;;10.08;66.13;99749.16;5094767;28;8822;-60
2022/10/10 03:34:37;;;;;;;;;0.00;0.00;;;;;9.93;66.63;99752.19;5095223;28;8830;-60
2022/10/10 03:37:05;;;;;;;;;0.00;0.00;;;;;9.75;66.85;99756.31;5095082;28;8833;-59
2022/10/10 03:39:33;;;;;;;;;1.00;1.00;;;;;9.59;67.24;99756.69;5095392;28;8822;-59
2022/10/10 03:42:00;;;;;;;;;2.00;2.00;;;;;9.46;67.45;99755.06;5094894;28;8919;-60
2022/10/10 03:44:28;;;;;;;;;1.00;0.75;;;;;9.35;68.09;99755.09;5098311;28;8821;-60
2022/10/10 03:46:55;;;;;;;;;0.00;0.00;;;;;9.24;67.97;99758.56;5098826;28;9598;-59
2022/10/10 03:49:23;;;;;;;;;3.00;3.00;;;;;9.12;68.08;99759.50;5098318;28;8838;-60
2022/10/10 03:51:52;;;;;;;;;2.00;2.00;;;;;9.00;68.21;99763.09;5098576;28;8838;-59
2022/10/10 03:54:20;;;;;;;;;2.00;2.00;;;;;8.87;68.54;99759.69;5098453;28;8899;-60
2022/10/10 03:56:47;;;;;;;;;3.00;3.00;;;;;8.79;69.07;99758.56;5098193;28;8872;-61
2022/10/10 03:59:15;;;;;;;;;0.00;0.00;;;;;8.70;68.91;99764.56;5098130;28;8832;-59
2022/10/10 04:01:44;;;;;;;;;3.50;3.50;;;;;8.64;68.92;99763.22;5097366;28;8833;-60
2022/10/10 04:04:12;;;;;;;;;3.00;3.00;;;;;8.60;68.37;99760.91;5097155;28;8822;-59
2022/10/10 04:06:40;;;;;;;;;2.50;2.00;;;;;8.54;68.89;99761.34;5097248;28;8843;-58
2022/10/10 04:09:07;;;;;;;;;3.00;3.00;;;;;8.46;69.10;99759.28;5097413;28;9733;-60
2022/10/10 04:11:37;;;;;;;;;3.00;2.50;;;;;8.41;68.87;99760.56;5097392;28;8846;-59
2022/10/10 04:14:05;;;;;;;;;3.00;3.00;;;;;8.36;69.47;99750.28;5097630;28;8818;-58
2022/10/10 04:16:32;;;;;;;;;2.00;1.00;;;;;8.32;69.24;99750.63;5097281;28;8830;-59
2022/10/10 04:19:00;;;;;;;;;3.00;3.00;;;;;8.28;69.29;99749.19;5097474;28;8837;-61
2022/10/10 04:21:28;;;;;;;;;6.00;4.00;;;;;8.28;69.24;99750.00;5096904;28;8833;-60
2022/10/10 04:23:55;;;;;;;;;1.00;1.00;;;;;8.23;69.25;99749.53;5097764;28;8837;-59
2022/10/10 04:26:23;;;;;;;;;3.00;3.00;;;;;8.21;68.91;99746.13;5097507;28;8910;-59
2022/10/10 04:28:51;;;;;;;;;3.00;3.00;;;;;8.21;69.39;99747.94;5097701;28;8835;-61
2022/10/10 04:31:19;;;;;;;;;4.00;3.25;;;;;8.20;69.06;99740.94;5097326;28;8822;-60
2022/10/10 04:33:46;;;;;;;;;2.75;2.75;;;;;8.19;69.23;99744.53;5097379;28;8830;-61
2022/10/10 04:36:14;;;;;;;;;3.00;3.00;;;;;8.17;69.40;99733.16;5097539;28;8846;-59
2022/10/10 04:38:42;;;;;;;;;2.00;2.00;;;;;8.15;69.25;99733.25;5096815;28;9495;-61
2022/10/10 04:41:10;;;;;;;;;1.00;1.00;;;;;8.15;69.21;99733.25;5097182;28;8871;-59
2022/10/10 04:43:38;;;;;;;;;3.75;3.75;;;;;8.16;68.96;99734.13;5097228;28;8846;-61
2022/10/10 04:46:05;;;;;;;;;3.00;3.00;;;;;8.13;69.66;99735.19;5097144;28;8923;-60
2022/10/10 04:48:33;;;;;;;;;3.00;3.00;;;;;8.11;69.09;99734.47;5096951;28;8814;-59
2022/10/10 04:51:01;;;;;;;;;2.50;2.50;;;;;8.10;69.35;99735.41;5097384;28;9495;-58
2022/10/10 04:53:29;;;;;;;;;2.00;1.00;;;;;8.07;69.21;99730.31;5096953;28;8829;-59
2022/10/10 04:55:56;;;;;;;;;4.00;3.25;;;;;8.06;68.81;99739.25;5097143;28;8826;-61
2022/10/10 04:58:24;;;;;;;;;3.00;3.00;;;;;8.04;69.46;99732.34;5096610;28;8823;-60
2022/10/10 05:00:51;;;;;;;;;3.00;3.00;;;;;8.02;69.35;99737.78;5096620;28;8810;-60
2022/10/10 05:03:19;;;;;;;;;6.00;5.00;;;;;8.01;69.30;99732.59;5096676;28;8830;-61
2022/10/10 05:05:47;;;;;;;;;4.00;3.00;;;;;8.02;69.39;99731.63;5096880;28;8868;-63
2022/10/10 05:08:15;;;;;;;;;5.00;4.00;;;;;8.01;69.39;99729.94;5097598;28;8842;-60
2022/10/10 05:10:42;;;;;;;;;3.75;3.75;;;;;8.00;69.28;99731.72;5095659;28;8856;-59
2022/10/10 05:13:10;;;;;;;;;3.00;3.00;;;;;8.00;69.38;99729.06;5096652;28;8826;-62
2022/10/10 05:15:37;;;;;;;;;3.00;3.00;;;;;7.99;69.51;99730.03;5096827;28;8818;-61
2022/10/10 05:18:05;;;;;;;;;4.00;4.00;;;;;7.99;69.42;99730.03;5096003;28;8802;-59
2022/10/10 05:20:33;;;;;;;;;2.60;2.60;;;;;7.98;69.25;99731.00;5095475;28;8903;-60
2022/10/10 05:23:00;;;;;;;;;4.00;4.00;;;;;7.96;69.20;99732.91;5095584;28;8838;-60
2022/10/10 05:25:28;;;;;;;;;2.60;2.60;;;;;7.96;69.38;99726.75;5095393;28;8838;-59
2022/10/10 05:27:56;;;;;;;;;3.00;1.50;;;;;7.95;69.58;99733.03;5095415;28;8837;-60
2022/10/10 05:30:24;;;;;;;;;3.40;3.40;;;;;7.92;69.42;99728.78;5095872;28;8922;-60
2022/10/10 05:32:52;;;;;;;;;6.50;5.75;;;;;7.92;69.41;99734.09;5095271;28;8853;-60
2022/10/10 05:35:20;;;;;;;;;6.00;6.00;;;;;7.90;69.69;99729.88;5095667;28;9546;-59
2022/10/10 05:37:47;;;;;;;;;9.20;7.00;;;;;7.90;69.48;99727.22;5095538;28;8903;-59
2022/10/10 05:40:15;;;;;;;;;9.00;9.00;;;;;7.91;69.65;99724.44;5095766;28;8842;-59
2022/10/10 05:42:43;;;;;;;;;6.00;6.00;;;;;7.94;69.11;99723.38;5095342;28;8834;-59
2022/10/10 05:45:11;;;;;;;;;6.80;5.60;;;;;7.98;69.32;99730.16;5095549;28;9572;-61
2022/10/10 05:47:38;;;;;;;;;6.00;4.00;;;;;7.99;69.32;99718.59;5095451;28;8829;-60
2022/10/10 05:50:06;;;;;;;;;4.00;2.50;;;;;8.00;69.12;99722.94;5095643;28;8818;-59
2022/10/10 05:52:35;;;;;;;;;4.00;4.00;;;;;7.99;69.17;99724.72;5095607;28;8834;-60
2022/10/10 05:55:03;;;;;;;;;7.80;6.60;;;;;7.99;69.55;99722.09;5095780;28;8830;-60
2022/10/10 05:57:30;;;;;;;;;7.40;6.80;;;;;7.97;69.29;99723.16;5095346;28;8822;-62
2022/10/10 05:59:58;;;;;;;;;11.20;11.20;;;;;7.94;69.40;99724.25;5095582;28;8829;-60
2022/10/10 06:02:25;;;;;;;;;9.60;8.80;;;;;7.93;69.13;99732.28;5095171;28;8950;-60
2022/10/10 06:04:53;;;;;;;;;6.60;6.60;;;;;7.94;69.18;99724.25;5095453;28;8857;-62
2022/10/10 06:07:21;;;;;;;;;12.60;12.00;;;;;7.96;68.97;99724.09;5095158;28;8845;-61
2022/10/10 06:09:49;;;;;;;;;10.80;10.00;;;;;8.00;69.29;99738.84;5095302;28;9813;-61
2022/10/10 06:12:17;;;;;;;;;14.60;13.00;;;;;8.01;69.29;99738.75;5094407;28;8844;-61
2022/10/10 06:14:45;;;;;;;;;12.20;12.00;;;;;8.02;69.19;99732.47;5094508;28;8841;-61
2022/10/10 06:17:12;;;;;;;;;10.00;9.00;;;;;8.06;69.11;99735.75;5093005;28;8918;-59
2022/10/10 06:19:40;;;;;;;;;11.60;10.40;;;;;8.08;68.95;99729.41;5092808;28;8830;-61
2022/10/10 06:22:08;;;;;;;;;9.40;9.40;;;;;8.14;68.80;99733.41;5093365;28;8830;-61
2022/10/10 06:24:35;;;;;;;;;6.00;6.00;;;;;8.26;68.47;99733.38;5092812;28;8845;-60
2022/10/10 06:27:03;;;;;;;;;4.40;4.00;;;;;8.53;68.31;99731.31;5094012;28;8915;-61
2022/10/10 06:29:31;;;;;;;;;3.25;2.50;;;;;8.87;67.79;99727.81;5093805;28;8833;-60
2022/10/10 06:31:59;;;;;;;;;0.75;0.75;;;;;9.21;67.59;99728.72;5093162;28;9000;-60
2022/10/10 06:34:27;;;;;;;;;4.50;3.50;;;;;9.50;66.97;99725.47;5092909;28;8834;-59
2022/10/10 06:36:54;;;;;;;;;4.00;3.00;;;;;9.79;66.81;99718.72;5093381;28;8906;-62
2022/10/10 06:39:22;;;;;;;;;5.25;5.25;;;;;10.04;66.20;99722.94;5093351;28;8850;-60
2022/10/10 06:41:50;;;;;;;;;4.00;4.00;;;;;10.27;66.17;99725.44;5092864;28;8838;-60
2022/10/10 06:44:18;;;;;;;;;1.00;1.00;;;;;10.48;65.79;99717.50;5092916;28;8845;-60
2022/10/10 06:46:45;;;;;;;;;4.00;3.00;;;;;10.69;65.35;99721.88;5093204;28;8845;-61
2022/10/10 06:49:13;;;;;;;;;4.00;4.00;;;;;10.89;65.10;99714.84;5093403;28;8826;-61
2022/10/10 06:51:41;;;;;;;;;4.00;3.25;;;;;11.08;64.90;99715.00;5092395;28;8826;-60
2022/10/10 06:54:08;;;;;;;;;4.50;4.50;;;;;11.25;64.95;99720.59;5091633;28;8830;-59
2022/10/10 06:56:36;;;;;;;;;4.00;4.00;;;;;11.40;64.88;99715.75;5092059;28;8934;-59
2022/10/10 06:59:04;;;;;;;;;4.00;3.00;;;;;11.55;64.89;99719.75;5091616;28;8884;-59
2022/10/10 07:01:32;;;;;;;;;5.00;5.00;;;;;11.70;64.52;99727.28;5092439;28;8818;-60
2022/10/10 07:04:00;;;;;;;;;4.25;3.75;;;;;11.82;64.07;99723.53;5092540;28;8853;-60
2022/10/10 07:06:28;;;;;;;;;3.50;3.50;;;;;11.97;64.52;99732.03;5093247;28;8846;-60
2022/10/10 07:09:01;;;;;;;;;6.50;6.00;;;;;12.06;63.96;99724.03;5093730;28;8826;-61
2022/10/10 07:11:29;;;;;;;;;4.00;4.00;;;;;12.17;64.17;99729.25;5093831;28;8818;-60
2022/10/10 07:13:56;;;;;;;;;4.00;4.00;;;;;12.26;64.42;99723.09;5093840;28;8861;-60
2022/10/10 07:16:24;;;;;;;;;1.00;1.00;;;;;12.35;64.61;99724.94;5093836;28;8966;-60
2022/10/10 07:18:52;;;;;;;;;5.00;4.50;;;;;12.45;64.27;99729.28;5096127;28;8834;-60
2022/10/10 07:21:20;;;;;;;;;3.50;3.00;;;;;12.57;64.46;99724.66;5097210;28;8822;-59
2022/10/10 07:23:48;;;;;;;;;4.00;4.00;;;;;12.65;64.37;99722.13;5096206;28;8884;-60
2022/10/10 07:26:19;;;;;;;;;5.50;5.00;;;;;12.72;64.07;99724.13;5084575;28;8822;-61
2022/10/10 07:28:47;;;;;;;;;4.00;4.00;;;;;12.80;64.01;99728.75;5097781;28;8838;-60
2022/10/10 07:31:16;;;;;;;;;6.75;5.50;;;;;12.93;64.46;99731.97;5097036;28;8858;-60
2022/10/10 07:33:44;;;;;;;;;4.00;3.25;;;;;13.13;64.01;99736.38;5097009;28;8840;-60
2022/10/10 07:36:17;;;;;;;;;5.00;4.00;;;;;13.33;63.78;99732.66;5096827;28;8850;-62
2022/10/10 07:38:44;;;;;;;;;4.00;4.00;;;;;13.47;63.33;99725.03;5097016;28;8853;-60
2022/10/10 07:41:12;;;;;;;;;6.25;5.50;;;;;13.59;63.50;99725.69;5097000;28;8837;-60
2022/10/10 07:43:41;;;;;;;;;3.50;3.00;;;;;13.67;63.83;99717.75;5096834;28;8845;-60
2022/10/10 07:46:09;;;;;;;;;1.00;1.00;;;;;13.76;63.68;99711.53;5097785;28;8833;-60
2022/10/10 07:48:38;;;;;;;;;7.00;6.00;;;;;13.85;63.55;99715.97;5097453;28;8826;-62
2022/10/10 07:51:06;;;;;;;;;5.50;5.50;;;;;13.95;63.38;99722.97;5097076;28;8848;-60
2022/10/10 07:53:34;;;;;;;;;3.00;1.50;;;;;14.07;62.90;99720.94;5096974;28;8834;-60
2022/10/10 07:56:02;;;;;;;;;4.00;4.00;;;;;14.17;62.89;99730.63;5097410;28;8852;-60
2022/10/10 07:58:30;;;;;;;;;6.25;4.00;;;;;14.25;63.02;99727.19;5097168;28;8834;-60
2022/10/10 08:00:57;;;;;;;;;4.00;3.00;;;;;14.34;62.57;99735.19;5097114;28;8852;-60
2022/10/10 08:03:25;;;;;;;;;5.00;5.00;;;;;14.43;62.51;99734.28;5096116;28;8980;-60
2022/10/10 08:05:53;;;;;;;;;5.00;5.00;;;;;14.51;62.26;99731.69;5095609;28;8936;-60
2022/10/10 08:08:21;;;;;;;;;5.50;5.00;;;;;14.60;62.54;99725.44;5096290;28;9487;-60
2022/10/10 08:10:49;;;;;;;;;9.00;7.00;;;;;14.70;62.15;99728.00;5096046;28;8826;-60
2022/10/10 08:13:17;;;;;;;;;6.25;6.00;;;;;14.78;62.75;99726.25;5095758;28;8979;-60
2022/10/10 08:15:44;;;;;;;;;4.00;4.00;;;;;14.92;62.58;99725.72;5094558;28;8922;-60
2022/10/10 08:18:12;;;;;;;;;6.50;5.50;;;;;15.07;62.31;99729.53;5095768;28;8818;-60
2022/10/10 08:20:40;;;;;;;;;5.00;4.50;;;;;15.21;61.61;99730.81;5095861;28;8838;-61
2022/10/10 08:23:08;;;;;;;;;4.50;4.00;;;;;15.36;61.82;99730.13;5094717;28;9550;-62
2022/10/10 08:25:36;;;;;;;;;6.75;6.00;;;;;15.56;61.05;99731.56;5094288;28;8861;-60
2022/10/10 08:28:04;;;;;;;;;4.00;3.50;;;;;15.80;60.56;99731.72;5094673;28;8837;-61
2022/10/10 08:30:32;;;;;;;;;3.00;3.00;;;;;16.01;61.05;99732.16;5093285;28;8856;-60
2022/10/10 08:33:00;;;;;;;;;4.00;4.00;;;;;16.20;60.18;99726.53;5094100;28;8829;-60
2022/10/10 08:35:28;;;;;;;;;4.40;4.00;;;;;16.36;59.97;99722.06;5093791;28;8858;-60
2022/10/10 08:37:56;;;;;;;;;3.75;3.75;;;;;16.48;60.24;99731.50;5093981;28;8941;-60
2022/10/10 08:40:27;;;;;;;;;4.00;4.00;;;;;16.55;59.79;99726.34;5094194;28;8973;-61
2022/10/10 08:42:55;;;;;;;;;4.00;4.00;;;;;16.59;60.00;99728.53;5092674;28;8841;-60
2022/10/10 08:45:23;;;;;;;;;6.00;3.40;;;;;16.61;60.07;99725.66;5092576;28;8849;-60
2022/10/10 08:47:52;;;;;;;;;6.00;6.00;;;;;16.61;60.14;99721.13;5091682;28;8911;-61
2022/10/10 08:50:20;;;;;;;;;4.80;4.00;;;;;16.59;60.37;99724.97;5092245;28;8834;-61
2022/10/10 08:52:48;;;;;;;;;7.20;5.20;;;;;16.56;60.14;99726.16;5093127;28;8844;-59
2022/10/10 08:55:16;;;;;;;;;6.00;6.00;;;;;16.58;60.18;99732.22;5093128;28;8861;-60
2022/10/10 08:57:46;;;;;;;;;4.00;4.00;;;;;16.57;60.31;99718.94;5091833;28;8846;-61
2022/10/10 09:00:14;;;;;;;;;3.00;3.00;;;;;16.64;60.42;99728.03;5092593;28;8814;-60
2022/10/10 09:02:43;;;;;;;;;5.60;4.40;;;;;16.73;60.80;99729.72;5093340;28;8841;-60
2022/10/10 09:05:20;;;;;;;;;4.00;4.00;;;;;16.83;59.77;99727.69;5094546;28;8884;-60
2022/10/10 09:07:49;;;;;;;;;4.00;3.40;;;;;16.87;60.34;99726.38;5093844;28;8838;-60
2022/10/10 09:10:17;;;;;;;;;6.40;6.40;;;;;16.88;60.13;99722.66;5094030;28;8858;-60
2022/10/10 09:12:45;;;;;;;;;6.60;5.20;;;;;16.89;60.24;99729.72;5093939;28;8830;-61
2022/10/10 09:15:12;;;;;;;;;4.00;4.00;;;;;16.86;60.23;99733.59;5094118;28;8822;-60
2022/10/10 09:17:40;;;;;;;;;5.60;4.00;;;;;16.84;60.00;99722.16;5094099;28;8840;-60
2022/10/10 09:20:08;;;;;;;;;4.00;4.00;;;;;16.86;60.66;99730.06;5093122;28;8849;-60
2022/10/10 09:22:36;;;;;;;;;5.20;4.00;;;;;16.90;60.53;99743.03;5094148;28;8960;-60
2022/10/10 09:25:04;;;;;;;;;3.00;3.00;;;;;16.95;60.00;99740.66;5094066;28;8883;-60
2022/10/10 09:27:32;;;;;;;;;4.40;4.00;;;;;16.98;59.86;99732.25;5094224;28;8969;-60
2022/10/10 09:30:00;;;;;;;;;5.20;5.20;;;;;17.03;60.53;99729.91;5094280;28;8822;-61
2022/10/10 09:32:28;;;;;;;;;4.00;3.40;;;;;17.05;60.15;99735.97;5093972;28;8861;-61
2022/10/10 09:34:56;;;;;;;;;4.40;4.00;;;;;17.04;60.02;99736.97;5094064;28;8988;-61
2022/10/10 09:37:24;;;;;;;;;5.20;4.00;;;;;17.11;60.11;99739.81;5093446;28;8903;-60
2022/10/10 09:40:12;;;;;;;;;4.00;4.00;;;;;17.24;60.11;99735.59;5093204;28;8993;-61
2022/10/10 09:42:40;;;;;;;;;3.80;3.80;;;;;17.31;59.79;99742.00;5093779;28;8845;-60
2022/10/10 09:45:09;;;;;;;;;1.80;1.80;;;;;17.42;59.61;99749.78;5092779;28;9725;-61
2022/10/10 09:47:36;;;;;;;;;3.00;2.60;;;;;17.52;59.24;99749.56;5093111;28;8834;-60
2022/10/10 09:50:05;;;;;;;;;8.20;6.00;;;;;17.64;59.44;99753.59;5092669;28;9748;-61
2022/10/10 09:52:32;;;;;;;;;7.00;6.80;;;;;17.70;59.00;99742.97;5092747;28;8852;-61
2022/10/10 09:55:01;;;;;;;;;6.00;4.00;;;;;17.89;58.39;99747.13;5093030;28;8858;-60
2022/10/10 09:57:29;;;;;;;;;4.00;4.00;;;;;18.22;57.96;99744.16;5092582;28;8853;-60
2022/10/10 09:59:56;;;;;;;;;6.00;6.00;;;;;18.81;56.98;99743.50;5092636;28;8806;-61
2022/10/10 10:02:31;;;;;;;;;4.80;4.00;;;;;19.50;55.45;99737.91;5093110;28;9515;-60
2022/10/10 10:04:59;;;;;;;;;6.00;4.00;;;;;20.11;54.27;99743.00;5091983;28;9036;-61
2022/10/10 10:07:27;;;;;;;;;6.60;4.00;;;;;20.60;53.64;99733.25;5091837;28;8825;-60
2022/10/10 10:09:55;;;;;;;;;6.00;5.00;;;;;20.92;53.28;99727.38;5092435;28;8854;-61
2022/10/10 10:12:24;;;;;;;;;4.80;4.00;;;;;20.92;53.13;99744.47;5092183;28;8833;-60
2022/10/10 10:14:51;;;;;;;;;3.80;2.40;;;;;20.70;53.46;99741.88;5091952;28;8868;-60
2022/10/10 10:17:19;;;;;;;;;2.20;2.20;;;;;20.39;54.62;99743.19;5092172;28;8833;-61
2022/10/10 10:19:47;;;;;;;;;3.80;2.80;;;;;20.22;55.09;99747.97;5093254;28;8838;-60
2022/10/10 10:22:16;;;;;;;;;2.00;2.00;;;;;20.13;55.37;99740.97;5093938;28;8837;-61
2022/10/10 10:24:46;;;;;;;;;5.00;4.60;;;;;20.19;55.37;99750.19;5093436;28;8852;-60
2022/10/10 10:27:14;;;;;;;;;4.00;2.40;;;;;20.48;54.64;99750.16;5093083;28;8841;-60
2022/10/10 10:29:43;;;;;;;;;2.00;2.00;;;;;20.92;53.82;99745.50;5093338;28;8984;-61
2022/10/10 10:32:11;;;;;;;;;4.00;4.00;;;;;21.46;52.03;99742.88;5093848;28;8864;-61
2022/10/10 10:34:40;;;;;;;;;4.80;4.00;;;;;21.95;51.19;99751.00;5093310;28;8881;-60
2022/10/10 10:37:08;;;;;;;;;1.80;1.80;;;;;22.08;50.80;99751.91;5093883;28;8856;-60
2022/10/10 10:39:41;;;;;;;;;4.40;4.00;;;;;22.02;50.68;99765.44;5093392;28;8845;-60
2022/10/10 10:42:09;;;;;;;;;4.80;4.40;;;;;21.80;50.88;99761.13;5092492;28;8857;-60
2022/10/10 10:44:37;;;;;;;;;2.00;2.00;;;;;21.53;51.80;99764.59;5092082;28;8837;-60
2022/10/10 10:47:05;;;;;;;;;5.00;4.20;;;;;21.36;52.14;99763.22;5091256;28;8850;-59
2022/10/10 10:49:33;;;;;;;;;4.00;4.00;;;;;21.24;52.11;99765.63;5090593;28;8837;-60
2022/10/10 10:52:01;;;;;;;;;2.00;2.00;;;;;21.13;51.93;99765.28;5092703;28;8841;-60
2022/10/10 10:54:30;;;;;;;;;5.40;5.00;;;;;20.88;52.30;99774.84;5095048;28;8822;-63
2022/10/10 10:56:58;;;;;;;;;4.00;2.00;;;;;20.71;52.44;99767.91;5094957;28;8830;-60
2022/10/10 10:59:33;;;;;;;;;4.20;3.60;;;;;20.65;52.74;99775.97;5095793;28;8836;-61
2022/10/10 11:02:21;;;;;;;;;4.80;4.40;;;;;20.63;52.36;99765.31;5096588;28;8846;-61
2022/10/10 11:05:09;;;;;;;;;1.80;1.80;;;;;20.62;52.54;99763.66;5095820;28;8904;-61
2022/10/10 11:07:54;;;;;;;;;4.00;4.00;;;;;20.51;52.80;99758.75;5094899;28;8852;-61
2022/10/10 11:10:22;;;;;;;;;2.00;1.80;;;;;20.46;53.08;99763.88;5094984;28;9515;-62
2022/10/10 11:12:50;;;;;;;;;2.00;1.80;;;;;20.42;52.87;99762.59;5095494;28;8860;-60
2022/10/10 11:15:18;;;;;;;;;2.00;1.80;;;;;20.36;52.80;99762.47;5095161;28;8848;-61
2022/10/10 11:17:46;;;;;;;;;0.00;0.00;;;;;20.43;53.00;99768.81;5095935;28;8846;-60
2022/10/10 11:20:14;;;;;;;;;4.00;4.00;;;;;20.52;52.68;99773.94;5096013;28;8838;-61
2022/10/10 11:22:42;;;;;;;;;4.00;4.00;;;;;20.65;52.31;99771.41;5096159;28;8849;-62
2022/10/10 11:25:13;;;;;;;;;1.60;1.60;;;;;21.05;51.07;99765.41;5096022;28;8885;-60
2022/10/10 11:27:40;;;;;;;;;1.00;1.00;;;;;21.56;50.37;99759.63;5096327;28;8968;-61
2022/10/10 11:30:08;;;;;;;;;1.00;1.00;;;;;21.95;49.09;99761.84;5095823;28;8860;-61
2022/10/10 11:32:36;;;;;;;;;3.60;3.60;;;;;22.16;49.40;99762.59;5096435;28;8898;-62
2022/10/10 11:35:04;;;;;;;;;3.00;1.80;;;;;22.06;49.23;99772.97;5095939;28;8950;-61
2022/10/10 11:37:32;;;;;;;;;2.00;2.00;;;;;22.07;49.32;99763.78;5095254;28;8830;-61
2022/10/10 11:40:00;;;;;;;;;2.00;2.00;;;;;22.04;50.22;99763.34;5095241;28;8872;-61
2022/10/10 11:42:27;;;;;;;;;2.00;1.40;;;;;22.17;49.85;99763.44;5094640;28;8846;-60
2022/10/10 11:44:55;;;;;;;;;2.00;1.40;;;;;22.31;48.79;99757.06;5094681;28;8838;-61
2022/10/10 11:47:23;;;;;;;;;5.00;2.40;;;;;22.29;49.58;99751.81;5094465;28;8825;-60